Terminal Aerodrome Forecast
Issued by NWS

Home | Current Version | Previous Version | Text Only | Print | Product List | Glossary On
Versions: 1 2 3 4 5 6 7 8 9 10 11 12 13 14
000
FTAK31 PAJN 162340
TAFAJN
TAF
PAJN 162340Z 1700/1724 10013KT P6SM -SHRA FEW008 BKN025 OVC030
     FM170400 10012G20KT 6SM -SHRA OVC020
     FM171000 12011G17KT 4SM -SHRA BR SCT014 OVC020
     FM171800 11012KT 6SM -SHRA OVC020=

USA.gov is the U.S. government's official web portal to all federal, state and local government web resources and services.